Time;durP1;ratioP1;P1;durP2;ratioP2;P2;SDS_P1;SDS_P2;PMS_P1;PMS_P2;Temp;Humidity;BMP_temperature;BMP_pressure;BME280_temperature;BME280_humidity;BME280_pressure;Samples;Min_cycle;Max_cycle;Signal;HPM_P1;HPM_P2
2024/03/14 00:00:21;;;;;;;11.00;6.97;;;;;;;15.03;62.46;98820.72;6711855;29;20734;-81
2024/03/14 00:03:42;;;;;;;10.60;7.27;;;;;;;14.99;62.57;98828.53;6720562;29;20281;-82
2024/03/14 00:07:04;;;;;;;8.60;7.27;;;;;;;15.01;62.35;98831.00;6720033;29;20217;-82
2024/03/14 00:10:26;;;;;;;13.87;7.90;;;;;;;15.14;62.22;98825.38;6712380;29;20624;-81
2024/03/14 00:13:47;;;;;;;7.83;7.13;;;;;;;15.09;61.69;98815.22;6701441;29;20685;-81
2024/03/14 00:17:09;;;;;;;10.13;6.80;;;;;;;15.12;62.07;98813.91;6700759;29;20213;-81
2024/03/14 00:20:31;;;;;;;8.93;6.97;;;;;;;14.82;62.51;98815.84;6698624;29;20897;-81
2024/03/14 00:23:54;;;;;;;10.03;7.80;;;;;;;14.21;64.52;98804.41;6699781;29;20262;-81
2024/03/14 00:27:15;;;;;;;10.20;7.73;;;;;;;14.29;65.07;98806.81;6697890;29;20213;-81
2024/03/14 00:30:37;;;;;;;11.57;7.80;;;;;;;14.69;63.49;98783.50;6718453;29;20332;-81
2024/03/14 00:34:00;;;;;;;9.87;7.90;;;;;;;14.70;63.06;98791.38;6698341;29;20296;-81
2024/03/14 00:37:21;;;;;;;9.03;8.13;;;;;;;14.66;63.37;98817.34;6698466;29;20259;-81
2024/03/14 00:40:43;;;;;;;8.90;8.00;;;;;;;14.98;62.69;98810.56;6708436;29;20244;-80
2024/03/14 00:44:05;;;;;;;9.53;7.63;;;;;;;14.98;62.22;98807.06;6709750;29;20240;-81
2024/03/14 00:47:27;;;;;;;9.30;7.53;;;;;;;14.93;62.06;98801.50;6710215;29;20681;-81
2024/03/14 00:50:49;;;;;;;10.00;8.00;;;;;;;14.60;62.48;98803.84;6709785;29;20300;-81
2024/03/14 00:54:11;;;;;;;11.87;8.10;;;;;;;14.69;62.88;98803.31;6708860;29;20211;-81
2024/03/14 00:57:32;;;;;;;11.87;7.80;;;;;;;14.83;62.51;98793.06;6707866;29;20213;-81
2024/03/14 01:00:54;;;;;;;9.20;7.70;;;;;;;14.81;62.34;98787.06;6701118;29;20234;-81
2024/03/14 01:04:17;;;;;;;9.90;7.93;;;;;;;14.63;62.36;98787.13;6697862;29;20256;-81
2024/03/14 01:07:39;;;;;;;10.13;8.40;;;;;;;14.59;62.12;98791.34;6698160;29;20304;-81
2024/03/14 01:11:00;;;;;;;11.43;9.40;;;;;;;14.38;62.58;98784.56;6696965;29;20282;-81
2024/03/14 01:14:22;;;;;;;12.27;10.03;;;;;;;14.21;63.20;98785.44;6696691;29;20278;-81
2024/03/14 01:17:44;;;;;;;10.13;8.23;;;;;;;14.26;62.98;98783.69;6719331;29;20780;-81
2024/03/14 01:21:07;;;;;;;10.37;8.50;;;;;;;14.40;62.17;98781.63;6722463;29;20319;-81
2024/03/14 01:24:29;;;;;;;11.63;8.37;;;;;;;14.36;62.41;98775.00;6723309;29;20666;-81
2024/03/14 01:27:51;;;;;;;14.57;8.23;;;;;;;14.31;62.51;98778.41;6723325;29;20217;-81
2024/03/14 01:31:14;;;;;;;10.43;8.10;;;;;;;14.09;63.16;98774.47;6722630;29;20201;-81
2024/03/14 01:34:36;;;;;;;11.07;7.97;;;;;;;14.01;63.19;98768.53;6672353;29;20273;-81
2024/03/14 01:37:59;;;;;;;12.33;8.17;;;;;;;14.09;63.13;98779.91;6688301;29;20213;-81
2024/03/14 01:41:21;;;;;;;10.27;7.53;;;;;;;13.97;62.92;98773.59;6697972;29;20213;-81
2024/03/14 01:44:58;;;;;;;14.20;11.37;;;;;;;14.36;62.42;98764.13;6698243;29;20244;-81
2024/03/14 01:48:19;;;;;;;13.73;9.27;;;;;;;14.37;62.13;98763.06;6708957;29;20292;-81
2024/03/14 01:51:41;;;;;;;12.50;7.07;;;;;;;14.41;62.00;98767.00;6696133;29;20237;-81
2024/03/14 01:55:03;;;;;;;12.40;7.77;;;;;;;14.21;62.53;98761.03;6696180;29;20326;-81
2024/03/14 01:58:26;;;;;;;11.30;8.33;;;;;;;13.94;63.51;98756.97;6695832;29;20240;-81
2024/03/14 02:01:49;;;;;;;17.53;8.83;;;;;;;14.04;62.82;98714.69;6697798;29;20216;-81
2024/03/14 02:05:11;;;;;;;12.03;8.57;;;;;;;14.37;62.41;98744.09;6699670;29;20244;-81
2024/03/14 02:08:33;;;;;;;10.47;8.40;;;;;;;14.34;62.19;98734.53;6702281;29;20233;-81
2024/03/14 02:11:55;;;;;;;11.53;8.67;;;;;;;13.90;63.29;98748.47;6702232;29;20228;-81
2024/03/14 02:15:17;;;;;;;11.03;9.23;;;;;;;13.85;63.63;98747.47;6701614;29;20241;-81
2024/03/14 02:18:38;;;;;;;9.87;8.57;;;;;;;14.11;63.10;98744.44;6701527;29;20754;-80
2024/03/14 02:22:01;;;;;;;15.27;9.13;;;;;;;13.99;63.29;98740.84;6701215;29;20697;-81
2024/03/14 02:25:22;;;;;;;13.43;10.03;;;;;;;13.91;63.77;98744.69;6701689;29;20267;-81
2024/03/14 02:28:44;;;;;;;10.60;8.67;;;;;;;14.03;63.92;98747.44;6701924;29;20241;-81
2024/03/14 02:32:06;;;;;;;15.57;9.37;;;;;;;14.28;62.95;98738.16;6701393;29;20701;-81
2024/03/14 02:35:27;;;;;;;9.83;8.50;;;;;;;14.03;63.48;98739.31;6700549;29;20368;-81
2024/03/14 02:38:49;;;;;;;9.10;8.10;;;;;;;14.32;62.72;98733.09;6700625;29;20335;-81
2024/03/14 02:42:11;;;;;;;11.00;8.57;;;;;;;14.12;62.54;98721.69;6701212;29;20241;-81
2024/03/14 02:45:32;;;;;;;10.00;8.43;;;;;;;14.12;62.55;98724.41;6702226;29;20236;-81
2024/03/14 02:48:54;;;;;;;9.30;8.30;;;;;;;13.59;63.28;98693.59;6698148;29;20236;-81
2024/03/14 02:52:16;;;;;;;11.33;8.93;;;;;;;13.64;63.50;98723.56;6700143;29;20220;-82
2024/03/14 02:55:38;;;;;;;14.50;9.93;;;;;;;13.13;66.13;98731.19;6700597;29;20209;-81
2024/03/14 02:58:59;;;;;;;11.07;8.93;;;;;;;13.69;65.03;98724.53;6709893;29;20280;-81
2024/03/14 03:02:21;;;;;;;13.00;9.17;;;;;;;13.88;63.51;98728.06;6726757;29;20212;-81
2024/03/14 03:05:48;;;;;;;12.93;10.20;;;;;;;13.62;64.31;98734.63;6726736;29;20239;-81
2024/03/14 03:09:09;;;;;;;11.93;9.77;;;;;;;13.72;63.36;98734.09;6726093;29;20236;-82
2024/03/14 03:12:31;;;;;;;12.70;9.87;;;;;;;13.56;64.48;98731.97;6726818;29;20212;-81
2024/03/14 03:15:53;;;;;;;11.73;8.77;;;;;;;13.71;64.05;98733.28;6725395;29;20275;-82
2024/03/14 03:19:14;;;;;;;12.47;9.93;;;;;;;13.78;63.34;98722.34;6725233;29;20280;-81
2024/03/14 03:23:05;;;;;;;12.03;9.53;;;;;;;13.87;63.47;98726.41;6724885;29;20284;-81
2024/03/14 03:26:19;;;;;;;10.97;9.33;;;;;;;13.87;62.81;98731.81;6712776;29;20728;-81
2024/03/14 03:29:40;;;;;;;11.50;8.67;;;;;;;13.70;63.40;98731.59;6700195;29;20597;-81
2024/03/14 03:33:01;;;;;;;15.67;9.53;;;;;;;13.52;63.34;98719.94;6701438;29;20227;-81
2024/03/14 03:36:23;;;;;;;13.83;10.43;;;;;;;13.80;62.62;98725.66;6700176;29;20634;-81
2024/03/14 03:39:47;;;;;;;10.70;9.20;;;;;;;13.75;62.39;98720.09;6700837;29;20237;-81
2024/03/14 03:43:08;;;;;;;10.80;9.70;;;;;;;13.65;62.30;98720.63;6700491;29;20239;-81
2024/03/14 03:46:30;;;;;;;14.27;10.37;;;;;;;13.74;62.20;98721.16;6690027;29;20229;-81
2024/03/14 03:49:51;;;;;;;12.20;10.90;;;;;;;13.59;62.52;98712.56;6689640;29;20234;-81
2024/03/14 03:53:13;;;;;;;15.27;11.33;;;;;;;13.62;62.79;98723.78;6689520;29;20738;-81
2024/03/14 03:56:35;;;;;;;12.17;10.37;;;;;;;13.29;63.35;98725.19;6689885;29;20294;-81
2024/03/14 03:59:57;;;;;;;12.23;10.37;;;;;;;13.04;63.80;98716.31;6688690;29;20285;-81
2024/03/14 04:03:20;;;;;;;13.87;11.43;;;;;;;13.26;63.41;98718.34;6689747;29;20247;-81
2024/03/14 04:06:42;;;;;;;15.80;11.10;;;;;;;12.79;64.91;98689.22;6690853;29;20233;-81
2024/03/14 04:10:04;;;;;;;14.53;11.90;;;;;;;13.24;63.74;98719.63;6689047;29;20305;-81
2024/03/14 04:13:28;;;;;;;14.30;11.63;;;;;;;13.50;63.11;98731.00;6689011;29;20217;-81
2024/03/14 04:16:49;;;;;;;14.60;11.97;;;;;;;13.51;62.60;98712.88;6689898;29;20206;-81
2024/03/14 04:20:13;;;;;;;14.40;11.80;;;;;;;13.30;62.80;98718.72;6688852;29;20259;-81
2024/03/14 04:23:35;;;;;;;13.17;10.57;;;;;;;13.59;62.44;98728.81;6689680;29;20220;-80
2024/03/14 04:26:58;;;;;;;14.97;11.50;;;;;;;13.16;63.18;98741.59;6688174;29;20234;-81
2024/03/14 04:30:21;;;;;;;13.80;10.67;;;;;;;13.13;63.05;98714.94;6688817;29;20324;-80
2024/03/14 04:33:43;;;;;;;16.37;11.13;;;;;;;13.38;62.45;98718.41;6690800;29;20262;-80
2024/03/14 04:37:06;;;;;;;13.00;10.60;;;;;;;13.53;61.87;98730.56;6689965;29;20219;-81
2024/03/14 04:40:27;;;;;;;11.77;10.00;;;;;;;13.36;62.30;98729.50;6693351;29;20233;-81
2024/03/14 04:43:49;;;;;;;13.03;10.80;;;;;;;13.53;62.10;98725.16;6689954;29;20227;-81
2024/03/14 04:47:11;;;;;;;10.43;9.33;;;;;;;13.50;62.06;98728.28;6689826;29;20282;-81
2024/03/14 04:50:32;;;;;;;9.93;8.53;;;;;;;13.66;61.68;98725.00;6698497;29;20233;-81
2024/03/14 04:53:56;;;;;;;7.90;7.20;;;;;;;13.77;61.11;98723.41;6700975;29;20218;-81
2024/03/14 04:57:19;;;;;;;9.43;7.57;;;;;;;13.60;61.35;98716.94;6701293;29;20225;-81
2024/03/14 05:00:41;;;;;;;7.97;6.23;;;;;;;13.67;60.77;98721.22;6701527;29;20229;-81
2024/03/14 05:04:03;;;;;;;8.20;7.33;;;;;;;13.63;60.82;98705.66;6701655;29;20632;-82
2024/03/14 05:07:26;;;;;;;7.27;6.57;;;;;;;13.63;60.62;98720.00;6703830;29;20750;-81
2024/03/14 05:10:47;;;;;;;8.07;7.27;;;;;;;13.27;61.41;98713.78;6704522;29;20710;-81
2024/03/14 05:14:09;;;;;;;7.17;6.47;;;;;;;13.22;60.85;98683.84;6705639;29;20680;-81
2024/03/14 05:17:31;;;;;;;7.37;6.47;;;;;;;13.17;61.24;98714.25;6703693;29;20917;-81
2024/03/14 05:20:53;;;;;;;7.50;6.80;;;;;;;12.86;62.58;98716.22;6703410;29;20233;-81
2024/03/14 05:24:16;;;;;;;8.17;6.87;;;;;;;12.80;62.38;98717.13;6702940;29;20220;-81
2024/03/14 05:27:38;;;;;;;7.40;6.60;;;;;;;12.72;62.33;98720.06;6703321;29;20236;-81
2024/03/14 05:30:59;;;;;;;8.37;7.27;;;;;;;12.68;63.10;98718.88;6702838;29;20672;-82
2024/03/14 05:34:21;;;;;;;7.90;7.10;;;;;;;12.82;62.15;98704.19;6704554;29;20244;-81
2024/03/14 05:37:43;;;;;;;7.43;6.77;;;;;;;12.68;63.11;98699.94;6694982;29;20591;-81
2024/03/14 05:41:05;;;;;;;7.90;7.10;;;;;;;12.53;61.95;98642.63;6701386;29;20333;-82
2024/03/14 05:44:32;;;;;;;7.80;7.10;;;;;;;12.63;61.86;98645.69;6695089;29;20209;-84
2024/03/14 05:47:59;;;;;;;8.20;7.40;;;;;;;12.85;62.24;98706.44;6681200;29;20233;-83
2024/03/14 05:51:24;;;;;;;9.23;7.67;;;;;;;13.18;61.08;98696.16;6697279;29;20205;-81
2024/03/14 05:54:46;;;;;;;9.53;8.40;;;;;;;13.03;61.23;98710.03;6695391;29;20220;-82
2024/03/14 05:58:08;;;;;;;9.17;8.20;;;;;;;13.11;61.39;98695.41;6693974;29;20365;-82
2024/03/14 06:01:30;;;;;;;10.47;9.27;;;;;;;12.26;62.42;98627.66;6694901;29;20293;-82
2024/03/14 06:04:51;;;;;;;10.67;9.57;;;;;;;12.86;61.67;98708.09;6697263;29;20240;-82
2024/03/14 06:08:13;;;;;;;11.37;9.43;;;;;;;12.94;61.94;98700.53;6689882;29;20320;-82
2024/03/14 06:11:35;;;;;;;12.73;10.50;;;;;;;13.33;60.82;98710.16;6695428;29;20262;-82
2024/03/14 06:14:56;;;;;;;10.17;8.77;;;;;;;13.43;60.53;98715.88;6696426;29;20213;-82
2024/03/14 06:18:19;;;;;;;11.90;9.63;;;;;;;12.91;61.31;98682.03;6696687;29;20331;-82
2024/03/14 06:21:45;;;;;;;11.57;9.63;;;;;;;13.18;61.09;98702.41;6695154;29;20591;-83
2024/03/14 06:25:07;;;;;;;13.27;10.90;;;;;;;13.08;61.37;98706.66;6699301;29;20241;-83
2024/03/14 06:28:29;;;;;;;17.10;11.03;;;;;;;13.16;60.78;98661.19;6702769;29;20241;-83
2024/03/14 06:31:50;;;;;;;13.87;10.30;;;;;;;13.34;60.43;98718.03;6692525;29;20528;-82
2024/03/14 06:35:13;;;;;;;13.73;10.57;;;;;;;13.47;60.23;98707.09;6668490;29;20785;-82
2024/03/14 06:38:35;;;;;;;14.17;10.77;;;;;;;13.62;60.00;98712.13;6667945;29;20235;-82
2024/03/14 06:42:01;;;;;;;13.57;10.10;;;;;;;13.50;60.71;98712.03;6667283;29;20213;-81
2024/03/14 06:45:32;;;;;;;14.63;11.50;;;;;;;13.05;60.61;98645.69;6687736;29;20237;-81
2024/03/14 06:48:57;;;;;;;14.70;11.07;;;;;;;13.52;59.86;98669.28;6693198;29;20233;-82
2024/03/14 06:52:18;;;;;;;15.03;11.67;;;;;;;13.92;59.57;98727.38;6692807;29;20217;-82
2024/03/14 06:55:44;;;;;;;12.03;10.73;;;;;;;13.46;59.34;98645.81;6685467;29;20229;-84
2024/03/14 06:59:14;;;;;;;12.80;10.17;;;;;;;13.28;58.74;98626.06;6691235;29;20259;-84
2024/03/14 07:06:14;;;;;;;11.87;9.87;;;;;;;14.29;58.40;98726.25;6679728;29;20257;-84
2024/03/14 07:09:36;;;;;;;16.30;12.27;;;;;;;14.45;58.57;98709.31;6694053;29;20799;-86
2024/03/14 07:12:58;;;;;;;13.40;10.43;;;;;;;14.49;59.10;98728.69;6694415;29;20263;-83
2024/03/14 07:16:21;;;;;;;14.27;10.77;;;;;;;14.62;58.33;98728.50;6693261;29;20209;-84
2024/03/14 07:19:43;;;;;;;13.37;10.73;;;;;;;14.71;58.41;98727.09;6693220;29;20242;-84
2024/03/14 07:23:06;;;;;;;13.43;10.47;;;;;;;14.93;57.52;98733.63;6692789;29;20264;-86
2024/03/14 07:26:32;;;;;;;12.50;9.60;;;;;;;15.04;57.00;98730.09;6692111;29;20246;-83
2024/03/14 07:29:53;;;;;;;11.13;9.87;;;;;;;14.89;57.18;98730.56;6691880;29;20245;-84
2024/03/14 07:33:15;;;;;;;13.73;10.33;;;;;;;14.89;57.58;98710.72;6684574;29;20306;-84
2024/03/14 07:36:38;;;;;;;11.13;9.93;;;;;;;15.16;57.47;98728.22;6675806;29;20252;-86
2024/03/14 07:40:00;;;;;;;10.33;9.23;;;;;;;15.30;57.10;98726.91;6680222;29;20236;-85
2024/03/14 07:43:22;;;;;;;10.93;8.80;;;;;;;15.27;56.66;98719.25;6677489;29;20312;-85
2024/03/14 07:46:46;;;;;;;11.27;8.83;;;;;;;14.92;56.33;98636.97;6679074;29;20265;-85
2024/03/14 07:50:10;;;;;;;11.70;9.33;;;;;;;15.66;56.33;98724.78;6677888;29;20273;-84
2024/03/14 07:53:33;;;;;;;10.20;8.57;;;;;;;15.74;54.75;98721.66;6651728;29;20281;-85
2024/03/14 07:56:55;;;;;;;8.80;7.90;;;;;;;16.06;54.42;98717.47;6669538;29;20214;-86
2024/03/14 08:00:17;;;;;;;8.83;7.93;;;;;;;16.09;54.64;98713.41;6680735;29;20321;-85
2024/03/14 08:03:39;;;;;;;9.93;8.83;;;;;;;16.09;54.30;98714.22;6695954;29;20215;-85
2024/03/14 08:07:10;;;;;;;9.63;8.63;;;;;;;16.22;54.11;98715.84;6697091;29;20239;-85
2024/03/14 08:10:32;;;;;;;8.53;7.67;;;;;;;16.49;53.44;98725.09;6696487;29;20356;-86
2024/03/14 08:14:02;;;;;;;8.00;7.20;;;;;;;16.51;53.90;98725.69;6697502;29;20233;-85
2024/03/14 08:17:23;;;;;;;8.17;7.40;;;;;;;16.55;53.64;98702.31;6697742;29;20290;-85
2024/03/14 08:20:47;;;;;;;8.17;6.90;;;;;;;16.55;52.86;98680.56;6696740;29;20266;-85
2024/03/14 08:24:11;;;;;;;7.90;6.43;;;;;;;16.60;52.38;98713.31;6693453;29;20318;-86
2024/03/14 08:27:33;;;;;;;7.20;6.50;;;;;;;16.08;53.65;98715.31;6694209;29;20235;-86
2024/03/14 08:30:58;;;;;;;7.23;6.53;;;;;;;16.38;54.76;98720.50;6690517;29;20266;-86
2024/03/14 08:34:20;;;;;;;6.40;5.70;;;;;;;16.97;52.52;98711.75;6691337;29;20305;-85
2024/03/14 08:37:43;;;;;;;5.97;5.37;;;;;;;17.27;51.09;98685.81;6693832;29;20296;-85
2024/03/14 08:41:05;;;;;;;6.60;5.90;;;;;;;17.30;50.77;98718.03;6692475;29;20236;-84
2024/03/14 08:44:27;;;;;;;5.97;5.10;;;;;;;16.94;52.62;98691.31;6691254;29;20255;-85
2024/03/14 08:47:49;;;;;;;5.53;5.03;;;;;;;17.85;49.85;98717.97;6693587;29;20235;-86
2024/03/14 08:51:11;;;;;;;6.60;5.27;;;;;;;17.43;50.96;98720.44;6689828;29;20216;-81
2024/03/14 08:54:33;;;;;;;6.80;5.67;;;;;;;16.63;51.70;98724.53;6691715;29;20248;-87
2024/03/14 08:57:55;;;;;;;5.50;4.90;;;;;;;17.02;52.06;98714.56;6691167;29;20292;-84
2024/03/14 09:01:17;;;;;;;6.17;5.17;;;;;;;17.29;51.44;98719.06;6691414;29;20218;-85
2024/03/14 09:04:41;;;;;;;5.50;4.90;;;;;;;17.91;49.29;98711.50;6689304;29;20661;-85
2024/03/14 09:08:03;;;;;;;5.03;4.03;;;;;;;18.24;48.03;98705.91;6690407;29;20236;-84
2024/03/14 09:11:27;;;;;;;4.63;3.77;;;;;;;18.54;47.45;98707.09;6691014;29;20217;-84
2024/03/14 09:14:49;;;;;;;4.73;4.20;;;;;;;18.92;47.09;98695.94;6693202;29;20217;-85
2024/03/14 09:18:10;;;;;;;4.30;3.97;;;;;;;18.78;46.80;98715.75;6700363;29;20237;-81
2024/03/14 09:21:32;;;;;;;3.80;3.50;;;;;;;19.04;47.66;98701.25;6691809;29;20209;-84
2024/03/14 09:24:54;;;;;;;3.80;3.50;;;;;;;18.86;46.63;98633.34;6693177;29;20236;-84
2024/03/14 09:28:16;;;;;;;3.73;3.27;;;;;;;18.61;48.34;98698.66;6691537;29;20237;-84
2024/03/14 09:31:38;;;;;;;3.80;3.30;;;;;;;19.10;47.04;98687.34;6677462;29;20909;-84
2024/03/14 09:34:59;;;;;;;5.33;3.80;;;;;;;19.15;46.72;98683.81;6687888;29;20363;-84
2024/03/14 09:38:21;;;;;;;3.30;3.00;;;;;;;19.11;47.31;98678.06;6688405;29;20276;-85
2024/03/14 09:41:43;;;;;;;3.20;3.00;;;;;;;18.46;47.25;98679.44;6690355;29;20205;-84
2024/03/14 09:45:05;;;;;;;2.90;2.70;;;;;;;18.57;48.92;98684.72;6691140;29;20225;-85
2024/03/14 09:48:28;;;;;;;3.00;2.80;;;;;;;19.54;45.66;98679.72;6679685;29;20324;-84
2024/03/14 09:51:51;;;;;;;2.83;2.33;;;;;;;19.41;45.63;98658.34;6689291;29;20220;-84
2024/03/14 09:55:13;;;;;;;2.67;2.47;;;;;;;19.17;46.63;98671.53;6690212;29;20209;-84
2024/03/14 09:58:35;;;;;;;3.30;2.20;;;;;;;19.73;45.52;98659.88;6689465;29;20233;-84
2024/03/14 10:01:57;;;;;;;2.10;2.00;;;;;;;20.46;43.38;98645.06;6689712;29;20309;-83
2024/03/14 10:05:19;;;;;;;2.27;2.07;;;;;;;20.33;42.11;98568.91;6683228;29;20228;-84
2024/03/14 10:08:45;;;;;;;2.00;1.90;;;;;;;20.95;41.43;98657.16;6684768;29;20592;-83
2024/03/14 10:12:10;;;;;;;2.10;2.00;;;;;;;20.98;41.16;98648.38;6694809;29;20667;-81
2024/03/14 10:15:37;;;;;;;2.17;2.00;;;;;;;21.00;42.37;98646.19;6690788;29;20255;-83
2024/03/14 10:18:59;;;;;;;1.70;1.60;;;;;;;20.59;40.75;98625.34;6691075;29;20296;-83
2024/03/14 10:22:21;;;;;;;1.87;1.73;;;;;;;21.40;40.04;98638.69;6689504;29;20213;-83
2024/03/14 10:25:50;;;;;;;1.60;1.50;;;;;;;21.13;39.44;98570.47;6683580;29;20752;-83
2024/03/14 10:29:14;;;;;;;1.77;1.67;;;;;;;20.86;41.37;98636.84;6688181;29;20298;-83
2024/03/14 10:32:38;;;;;;;1.80;1.70;;;;;;;21.33;39.87;98624.47;6684519;29;20212;-82
2024/03/14 10:35:59;;;;;;;1.70;1.60;;;;;;;21.49;39.42;98629.59;6683741;29;20227;-84
2024/03/14 10:39:22;;;;;;;1.73;1.63;;;;;;;21.46;38.30;98629.34;6693672;29;20269;-83
2024/03/14 10:42:46;;;;;;;1.87;1.60;;;;;;;20.61;41.68;98623.13;6694000;29;20220;-83
2024/03/14 10:46:10;;;;;;;2.17;1.60;;;;;;;21.69;39.70;98618.63;6695469;29;20264;-84
2024/03/14 10:49:33;;;;;;;2.00;1.90;;;;;;;22.01;38.86;98627.22;6693700;29;20243;-82
2024/03/14 10:52:55;;;;;;;1.73;1.50;;;;;;;21.86;38.00;98630.06;6694328;29;20207;-83
2024/03/14 10:56:20;;;;;;;1.73;1.63;;;;;;;21.44;39.02;98604.97;6683436;29;20292;-84
2024/03/14 10:59:42;;;;;;;7.93;7.33;;;;;;;21.13;41.12;98625.31;6685710;29;20232;-84
2024/03/14 11:03:04;;;;;;;1.70;1.60;;;;;;;21.34;39.70;98613.22;6693659;29;20262;-83
2024/03/14 11:06:26;;;;;;;6.23;3.57;;;;;;;21.70;39.26;98598.28;6692988;29;20266;-83
2024/03/14 11:09:49;;;;;;;5.40;2.90;;;;;;;21.25;39.22;98601.16;6692459;29;20239;-82
2024/03/14 11:13:12;;;;;;;1.97;1.70;;;;;;;21.57;39.73;98603.53;6682730;29;20237;-83
2024/03/14 11:16:33;;;;;;;1.40;1.30;;;;;;;21.07;39.78;98608.34;6691861;29;20356;-83
2024/03/14 11:19:56;;;;;;;1.50;1.40;;;;;;;21.77;38.69;98592.50;6689841;29;20394;-83
2024/03/14 11:23:18;;;;;;;1.60;1.50;;;;;;;22.13;37.82;98580.22;6682327;29;20222;-83
2024/03/14 11:26:40;;;;;;;1.60;1.50;;;;;;;21.98;39.18;98588.53;6689523;29;20229;-83
2024/03/14 11:30:07;;;;;;;1.40;1.30;;;;;;;22.45;37.01;98581.38;6690637;29;20341;-83
2024/03/14 11:33:32;;;;;;;1.60;1.50;;;;;;;22.22;36.80;98573.00;6691197;29;20221;-82
2024/03/14 11:36:53;;;;;;;1.90;1.30;;;;;;;22.04;37.80;98580.00;6692218;29;20562;-84
2024/03/14 11:40:15;;;;;;;1.40;1.30;;;;;;;22.40;37.50;98570.41;6666616;29;20687;-83
2024/03/14 11:43:37;;;;;;;1.40;1.30;;;;;;;21.78;37.62;98564.75;6704102;29;20323;-85
2024/03/14 11:47:00;;;;;;;1.40;1.40;;;;;;;21.93;36.93;98552.88;6689681;29;20241;-83
2024/03/14 11:50:23;;;;;;;1.30;1.20;;;;;;;22.38;37.08;98572.63;6689746;29;20389;-83
2024/03/14 11:53:46;;;;;;;1.20;1.20;;;;;;;22.76;36.49;98560.78;6691019;29;20685;-83
2024/03/14 11:57:08;;;;;;;1.33;1.23;;;;;;;22.87;36.19;98548.56;6686351;29;20301;-82
2024/03/14 12:00:32;;;;;;;1.20;1.20;;;;;;;22.28;37.37;98553.47;6691486;29;20249;-81
2024/03/14 12:03:57;;;;;;;1.60;1.50;;;;;;;22.55;36.03;98551.06;6695967;29;20762;-83
2024/03/14 12:07:19;;;;;;;1.40;1.40;;;;;;;20.93;37.58;98542.28;6693609;29;20221;-82
2024/03/14 12:10:40;;;;;;;1.20;1.20;;;;;;;21.76;37.44;98536.78;6688878;29;20264;-83
2024/03/14 12:14:02;;;;;;;2.40;1.20;;;;;;;21.75;37.24;98528.81;6709305;29;20217;-82
2024/03/14 12:17:24;;;;;;;1.10;1.10;;;;;;;21.50;36.73;98528.94;6683097;29;20209;-83
2024/03/14 12:20:48;;;;;;;1.40;1.30;;;;;;;21.81;37.36;98519.47;6690712;29;20261;-82
2024/03/14 12:24:13;;;;;;;1.00;1.00;;;;;;;22.32;35.86;98520.75;6692936;29;20216;-83
2024/03/14 12:27:38;;;;;;;1.10;1.10;;;;;;;22.94;35.79;98521.56;6681399;29;20233;-82
2024/03/14 12:31:00;;;;;;;1.20;1.20;;;;;;;23.03;35.14;98508.81;6681229;29;20247;-83
2024/03/14 12:34:22;;;;;;;1.10;1.10;;;;;;;21.85;36.25;98507.66;6682518;29;20217;-82
2024/03/14 12:37:45;;;;;;;1.47;1.37;;;;;;;22.23;36.21;98500.47;6682311;29;20210;-83
2024/03/14 12:41:07;;;;;;;1.40;1.30;;;;;;;22.75;33.86;98486.84;6682206;29;20233;-82
2024/03/14 12:44:28;;;;;;;1.40;1.30;;;;;;;23.38;33.46;98496.59;6694331;29;20218;-82
2024/03/14 12:47:52;;;;;;;0.93;0.93;;;;;;;23.71;32.84;98495.59;6693875;29;20243;-82
2024/03/14 12:51:14;;;;;;;1.00;1.00;;;;;;;23.71;32.43;98485.38;6694541;29;20334;-82
2024/03/14 12:54:35;;;;;;;1.00;1.00;;;;;;;23.78;32.91;98463.78;6689692;29;20217;-83
2024/03/14 12:57:57;;;;;;;1.00;1.00;;;;;;;24.01;32.99;98471.19;6690520;29;20285;-82
2024/03/14 13:01:19;;;;;;;1.30;1.20;;;;;;;24.10;32.15;98452.03;6690197;29;20219;-83
2024/03/14 13:04:42;;;;;;;1.10;1.10;;;;;;;22.64;33.01;98395.44;6691361;29;20303;-83
2024/03/14 13:08:07;;;;;;;1.70;1.13;;;;;;;23.79;32.59;98451.66;6689500;29;20236;-83
2024/03/14 13:11:29;;;;;;;0.97;0.90;;;;;;;22.79;33.71;98453.00;6687938;29;20211;-82
2024/03/14 13:15:00;;;;;;;1.17;0.97;;;;;;;23.75;31.97;98422.28;6691018;29;20293;-81
2024/03/14 13:18:23;;;;;;;1.00;1.00;;;;;;;24.06;32.16;98423.47;6689841;29;20705;-84
2024/03/14 13:21:45;;;;;;;1.43;0.97;;;;;;;24.04;32.83;98436.72;6688507;29;20293;-84
2024/03/14 13:25:08;;;;;;;1.03;0.97;;;;;;;24.22;32.14;98435.84;6688862;29;20207;-84
2024/03/14 13:28:30;;;;;;;0.90;0.90;;;;;;;24.01;33.01;98424.38;6682966;29;20312;-84
2024/03/14 13:31:53;;;;;;;1.40;1.30;;;;;;;24.20;32.57;98425.13;6677738;29;20211;-84
2024/03/14 13:35:21;;;;;;;1.33;1.03;;;;;;;23.90;31.52;98351.28;6678517;29;20226;-84
2024/03/14 13:38:43;;;;;;;1.80;1.10;;;;;;;23.40;32.77;98420.06;6677919;29;20228;-84
2024/03/14 13:42:05;;;;;;;0.90;0.90;;;;;;;23.52;33.44;98425.94;6682249;29;20578;-84
2024/03/14 13:45:28;;;;;;;0.87;0.83;;;;;;;23.99;32.70;98421.09;6688407;29;20202;-84
2024/03/14 13:48:51;;;;;;;0.90;0.90;;;;;;;23.37;31.27;98423.41;6688075;29;20232;-84
2024/03/14 13:52:14;;;;;;;0.90;0.90;;;;;;;22.98;32.94;98404.38;6700960;29;20689;-84
2024/03/14 13:55:37;;;;;;;1.00;1.00;;;;;;;23.73;32.83;98400.53;6687123;29;20214;-84
2024/03/14 13:59:01;;;;;;;1.50;1.40;;;;;;;21.79;34.73;98401.75;6688078;29;20794;-84
2024/03/14 14:02:22;;;;;;;1.37;1.20;;;;;;;22.42;34.35;98399.78;6685812;29;20207;-84
2024/03/14 14:05:44;;;;;;;1.37;1.30;;;;;;;23.12;32.85;98347.50;6692060;29;20222;-84
2024/03/14 14:09:07;;;;;;;0.70;0.70;;;;;;;23.65;32.39;98386.66;6689892;29;20247;-84
2024/03/14 14:12:28;;;;;;;0.83;0.83;;;;;;;23.38;31.64;98331.50;6692035;29;20220;-84
2024/03/14 14:15:50;;;;;;;0.80;0.80;;;;;;;23.91;31.15;98376.91;6691848;29;20237;-85
2024/03/14 14:19:12;;;;;;;0.90;0.90;;;;;;;23.26;31.03;98268.66;6691067;29;20234;-85
2024/03/14 14:22:34;;;;;;;0.77;0.77;;;;;;;23.79;31.40;98349.00;6691664;29;20350;-84
2024/03/14 14:25:56;;;;;;;1.00;1.00;;;;;;;24.18;30.86;98355.75;6689772;29;20218;-83
2024/03/14 14:29:19;;;;;;;0.80;0.80;;;;;;;24.12;30.63;98334.91;6690398;29;20746;-84
2024/03/14 14:32:41;;;;;;;2.73;0.97;;;;;;;23.67;31.01;98343.94;6691790;29;20673;-84
2024/03/14 14:36:02;;;;;;;0.97;0.97;;;;;;;23.20;31.68;98318.56;6691362;29;20324;-84
2024/03/14 14:39:27;;;;;;;0.70;0.70;;;;;;;23.40;31.54;98272.28;6675045;29;20835;-84
2024/03/14 14:42:48;;;;;;;1.23;1.13;;;;;;;23.93;31.24;98338.84;6696248;29;20334;-85
2024/03/14 14:46:13;;;;;;;1.10;1.00;;;;;;;24.21;30.60;98335.03;6690894;29;20221;-84
2024/03/14 14:49:35;;;;;;;1.10;0.90;;;;;;;24.30;29.84;98342.28;6690169;29;20650;-84
2024/03/14 14:52:57;;;;;;;3.23;1.13;;;;;;;23.66;30.96;98342.31;6690354;29;20299;-84
2024/03/14 14:56:19;;;;;;;1.23;1.13;;;;;;;22.99;34.54;98344.69;6690895;29;20219;-84
2024/03/14 14:59:41;;;;;;;2.50;1.40;;;;;;;22.70;34.95;98336.53;6690532;29;20709;-84
2024/03/14 15:03:03;;;;;;;1.40;1.30;;;;;;;22.39;34.88;98332.50;6691157;29;20293;-84
2024/03/14 15:06:24;;;;;;;1.10;1.10;;;;;;;22.34;34.63;98334.47;6690463;29;20229;-83
2024/03/14 15:09:46;;;;;;;1.20;1.20;;;;;;;22.22;36.25;98332.13;6690563;29;20383;-84
2024/03/14 15:13:08;;;;;;;2.70;1.30;;;;;;;22.37;35.88;98318.22;6690689;29;20310;-83
2024/03/14 15:16:30;;;;;;;1.00;1.00;;;;;;;22.00;36.66;98314.50;6690887;29;20856;-84
2024/03/14 15:19:53;;;;;;;2.00;1.60;;;;;;;22.91;35.46;98323.34;6690656;29;20257;-84
2024/03/14 15:23:15;;;;;;;1.87;1.30;;;;;;;22.47;35.64;98306.31;6703720;29;20346;-83
2024/03/14 15:26:37;;;;;;;1.40;1.30;;;;;;;22.65;35.83;98313.81;6698905;29;20304;-83
2024/03/14 15:29:59;;;;;;;1.73;1.20;;;;;;;22.32;36.54;98314.72;6699376;29;20242;-83
2024/03/14 15:33:21;;;;;;;1.27;1.20;;;;;;;22.35;36.42;98298.47;6694917;29;20206;-84
2024/03/14 15:36:42;;;;;;;1.13;1.13;;;;;;;22.76;35.96;98312.53;6700047;29;20209;-83
2024/03/14 15:40:07;;;;;;;1.57;1.47;;;;;;;22.42;35.61;98306.38;6692514;29;20321;-83
2024/03/14 15:43:29;;;;;;;1.47;1.33;;;;;;;22.58;35.18;98299.59;6688657;29;20341;-83
2024/03/14 15:46:51;;;;;;;0.90;0.90;;;;;;;22.92;35.13;98287.31;6694706;29;20216;-83
2024/03/14 15:50:13;;;;;;;1.80;1.20;;;;;;;21.87;37.29;98299.56;6698214;29;20256;-83